createdAt,value
2023-03-17T00:00:41.539Z,16.60
2023-03-17T00:03:12.728Z,17.23
2023-03-17T00:05:41.469Z,16.73
2023-03-17T00:08:21.366Z,16.70
2023-03-17T00:10:50.603Z,16.43
2023-03-17T00:13:21.022Z,16.83
2023-03-17T00:15:52.935Z,15.87
2023-03-17T00:18:22.625Z,16.80
2023-03-17T00:20:51.429Z,15.33
2023-03-17T00:23:20.854Z,15.80
2023-03-17T00:25:50.388Z,15.80
2023-03-17T00:28:22.204Z,15.13
2023-03-17T00:30:51.774Z,14.43
2023-03-17T00:33:22.353Z,14.83
2023-03-17T00:35:51.090Z,15.17
2023-03-17T00:38:21.526Z,15.30
2023-03-17T00:40:51.215Z,14.00
2023-03-17T00:43:21.433Z,15.13
2023-03-17T00:45:51.168Z,14.10
2023-03-17T00:48:20.932Z,15.00
2023-03-17T00:50:50.615Z,14.67
2023-03-17T00:53:20.564Z,14.73
2023-03-17T00:55:50.149Z,15.03
2023-03-17T00:58:25.542Z,15.00
2023-03-17T01:00:55.284Z,15.67
2023-03-17T01:03:24.911Z,16.03
2023-03-17T01:05:54.478Z,16.03
2023-03-17T01:08:24.059Z,17.30
2023-03-17T01:10:52.635Z,17.83
2023-03-17T01:13:23.757Z,17.43
2023-03-17T01:15:53.040Z,18.73
2023-03-17T01:18:23.964Z,19.10
2023-03-17T01:20:53.278Z,19.13
2023-03-17T01:23:22.285Z,18.50
2023-03-17T01:25:51.031Z,18.43
2023-03-17T01:28:20.627Z,19.10
2023-03-17T01:30:51.224Z,18.10
2023-03-17T01:33:20.962Z,18.77
2023-03-17T01:35:49.791Z,19.03
2023-03-17T01:38:19.034Z,19.67
2023-03-17T01:40:49.670Z,19.60
2023-03-17T01:43:20.795Z,20.63
2023-03-17T01:46:29.294Z,20.37
2023-03-17T01:49:19.509Z,21.70
2023-03-17T01:52:03.509Z,20.93
2023-03-17T01:54:36.841Z,23.50
2023-03-17T01:57:11.730Z,24.50
2023-03-17T01:59:43.891Z,24.20
2023-03-17T02:02:19.910Z,23.57
2023-03-17T02:04:48.535Z,23.87
2023-03-17T02:07:17.168Z,24.10
2023-03-17T02:09:46.257Z,25.83
2023-03-17T02:12:15.517Z,25.47
2023-03-17T02:14:44.858Z,26.30
2023-03-17T02:17:16.461Z,27.57
2023-03-17T02:19:45.118Z,27.47
2023-03-17T02:22:15.397Z,27.33
2023-03-17T02:24:49.585Z,26.67
2023-03-17T02:27:19.984Z,27.63
2023-03-17T02:29:49.318Z,28.83
2023-03-17T02:32:19.766Z,29.73
2023-03-17T02:34:49.619Z,30.13
2023-03-17T02:37:20.504Z,28.30
2023-03-17T02:39:49.250Z,28.40
2023-03-17T02:42:18.103Z,27.80
2023-03-17T02:44:46.918Z,29.87
2023-03-17T02:47:15.492Z,29.90
2023-03-17T02:49:45.343Z,30.17
2023-03-17T02:52:14.003Z,29.50
2023-03-17T02:54:44.003Z,29.47
2023-03-17T02:57:12.636Z,29.73
2023-03-17T02:59:41.677Z,31.33
2023-03-17T03:02:10.507Z,31.43
2023-03-17T03:04:39.189Z,31.00
2023-03-17T03:07:08.942Z,30.87
2023-03-17T03:09:37.856Z,31.20
2023-03-17T03:12:10.101Z,30.90
2023-03-17T03:14:38.736Z,32.13
2023-03-17T03:17:07.388Z,30.50
2023-03-17T03:19:37.105Z,32.57
2023-03-17T03:22:05.822Z,31.50
2023-03-17T03:24:34.526Z,31.63
2023-03-17T03:27:03.287Z,31.37
2023-03-17T03:29:34.932Z,31.10
2023-03-17T03:32:05.798Z,33.53
2023-03-17T03:34:39.455Z,33.43
2023-03-17T03:37:13.186Z,33.37
2023-03-17T03:39:42.033Z,33.17
2023-03-17T03:42:11.146Z,33.93
2023-03-17T03:44:42.752Z,32.00
2023-03-17T03:47:11.655Z,32.83
2023-03-17T03:49:40.542Z,33.27
2023-03-17T03:52:12.280Z,33.30
2023-03-17T03:54:40.973Z,31.73
2023-03-17T03:57:10.788Z,33.67
2023-03-17T03:59:41.224Z,34.67
2023-03-17T04:02:10.294Z,32.83
2023-03-17T04:04:39.021Z,32.60
2023-03-17T04:07:10.725Z,33.73
2023-03-17T04:09:39.945Z,30.63
2023-03-17T04:12:09.037Z,32.47
2023-03-17T04:14:37.829Z,31.93
2023-03-17T04:17:07.907Z,32.43
2023-03-17T04:19:36.645Z,31.17
2023-03-17T04:22:05.737Z,31.53
2023-03-17T04:24:34.836Z,31.37
2023-03-17T04:27:05.874Z,30.73
2023-03-17T04:29:35.201Z,31.13
2023-03-17T04:32:04.799Z,30.83
2023-03-17T04:34:35.000Z,31.23
2023-03-17T04:37:06.720Z,30.87
2023-03-17T04:39:35.347Z,30.57
2023-03-17T04:42:03.928Z,30.63
2023-03-17T04:44:32.857Z,31.33
2023-03-17T04:47:01.427Z,30.73
2023-03-17T04:49:30.288Z,31.33
2023-03-17T04:52:00.409Z,30.73
2023-03-17T04:54:30.310Z,30.57
2023-03-17T04:56:58.869Z,29.57
2023-03-17T04:59:27.741Z,31.37
2023-03-17T05:01:57.519Z,32.73
2023-03-17T05:04:31.613Z,30.50
2023-03-17T05:07:03.009Z,31.40
2023-03-17T05:09:31.659Z,31.43
2023-03-17T05:12:00.480Z,31.53
2023-03-17T05:14:29.127Z,31.53
2023-03-17T05:16:58.936Z,31.83
2023-03-17T05:19:27.609Z,29.77
2023-03-17T05:21:56.245Z,31.20
2023-03-17T05:24:26.224Z,31.27
2023-03-17T05:26:54.937Z,33.33
2023-03-17T05:29:24.044Z,30.73
2023-03-17T05:31:53.039Z,31.73
2023-03-17T05:34:21.844Z,30.53
2023-03-17T05:36:50.598Z,31.90
2023-03-17T05:39:19.817Z,31.13
2023-03-17T05:41:52.908Z,29.90
2023-03-17T05:44:22.686Z,29.43
2023-03-17T05:46:51.470Z,28.67
2023-03-17T05:49:20.462Z,30.30
2023-03-17T05:51:49.661Z,30.80
2023-03-17T05:54:18.470Z,32.30
2023-03-17T05:56:47.269Z,30.43
2023-03-17T05:59:18.644Z,30.87
2023-03-17T06:01:47.644Z,30.03
2023-03-17T06:04:16.506Z,30.37
2023-03-17T06:06:45.436Z,29.77
2023-03-17T06:09:14.124Z,31.80
2023-03-17T06:11:44.012Z,30.50
2023-03-17T06:14:13.290Z,29.77
2023-03-17T06:16:43.513Z,30.43
2023-03-17T06:19:12.382Z,29.50
2023-03-17T06:21:41.787Z,29.23
2023-03-17T06:24:10.807Z,27.83
2023-03-17T06:26:39.714Z,27.63
2023-03-17T06:29:10.381Z,28.10
2023-03-17T06:31:39.542Z,28.30
2023-03-17T06:34:09.959Z,26.97
2023-03-17T06:36:41.530Z,26.47
2023-03-17T06:39:11.088Z,25.77
2023-03-17T06:41:40.314Z,26.33
2023-03-17T06:44:10.136Z,27.17
2023-03-17T06:46:39.427Z,25.43
2023-03-17T06:49:13.730Z,27.30
2023-03-17T06:51:43.007Z,25.93
2023-03-17T06:54:13.948Z,25.83
2023-03-17T06:56:45.267Z,28.60
2023-03-17T06:59:14.259Z,27.37
2023-03-17T07:02:10.269Z,25.80
2023-03-17T07:04:41.777Z,25.90
2023-03-17T07:07:11.293Z,22.30
2023-03-17T07:09:44.294Z,20.33
2023-03-17T07:12:14.438Z,20.17
2023-03-17T07:14:47.318Z,20.87
2023-03-17T07:17:17.408Z,20.37
2023-03-17T07:19:51.965Z,20.33
2023-03-17T07:22:21.609Z,19.17
2023-03-17T07:24:52.694Z,20.07
2023-03-17T07:27:27.339Z,21.20
2023-03-17T07:30:00.771Z,20.20
2023-03-17T07:35:56.279Z,22.30
2023-03-17T07:38:24.164Z,23.10
2023-03-17T07:40:55.502Z,21.20
2023-03-17T07:43:28.044Z,22.37
2023-03-17T07:46:15.765Z,21.70
2023-03-17T07:48:47.032Z,20.87
2023-03-17T07:51:27.771Z,21.83
2023-03-17T07:54:04.093Z,21.40
2023-03-17T07:56:40.870Z,19.67
2023-03-17T07:59:12.544Z,18.73
2023-03-17T08:01:46.362Z,17.13
2023-03-17T08:04:18.498Z,16.87
2023-03-17T08:06:57.788Z,17.27
2023-03-17T08:09:34.287Z,17.10
2023-03-17T08:12:16.177Z,17.93
2023-03-17T08:14:47.657Z,15.87
2023-03-17T08:17:27.143Z,16.70
2023-03-17T08:19:56.126Z,14.80
2023-03-17T08:22:30.686Z,11.97
2023-03-17T08:25:07.708Z,14.17
2023-03-17T08:27:45.738Z,15.13
2023-03-17T08:30:17.847Z,15.50
2023-03-17T08:32:55.315Z,14.47
2023-03-17T08:35:25.688Z,14.63
2023-03-17T08:37:57.221Z,14.80
2023-03-17T08:40:28.087Z,11.33
2023-03-17T08:43:07.108Z,8.70
2023-03-17T08:45:36.163Z,7.90
2023-03-17T08:48:05.186Z,7.07
2023-03-17T08:50:34.970Z,6.80
2023-03-17T08:53:07.365Z,6.53
2023-03-17T08:55:39.743Z,7.20
2023-03-17T08:58:09.801Z,6.18
2023-03-17T09:00:38.659Z,6.37
2023-03-17T09:03:08.810Z,6.20
2023-03-17T09:05:38.655Z,6.20
2023-03-17T09:08:09.173Z,7.10
2023-03-17T09:10:39.627Z,6.80
2023-03-17T09:13:09.390Z,6.23
2023-03-17T09:15:38.985Z,6.33
2023-03-17T09:18:10.700Z,7.03
2023-03-17T09:20:41.516Z,6.40
2023-03-17T09:23:12.393Z,6.20
2023-03-17T09:25:57.565Z,6.60
2023-03-17T09:28:27.455Z,5.87
2023-03-17T09:31:01.505Z,5.90
2023-03-17T09:33:31.016Z,5.30
2023-03-17T09:36:01.292Z,5.03
2023-03-17T09:38:33.658Z,6.88
2023-03-17T09:41:04.526Z,6.53
2023-03-17T09:43:38.785Z,6.47
2023-03-17T09:46:18.491Z,6.40
2023-03-17T09:48:52.838Z,5.63
2023-03-17T09:51:22.540Z,5.90
2023-03-17T09:53:59.508Z,4.80
2023-03-17T09:56:32.154Z,5.77
2023-03-17T09:59:06.825Z,5.68
2023-03-17T10:01:35.765Z,5.68
2023-03-17T10:04:04.746Z,6.20
2023-03-17T10:06:39.010Z,5.60
2023-03-17T10:09:17.009Z,5.40
2023-03-17T10:11:49.229Z,5.63
2023-03-17T10:14:32.672Z,4.85
2023-03-17T10:17:05.343Z,5.32
2023-03-17T10:19:37.656Z,5.78
2023-03-17T10:22:10.513Z,5.32
2023-03-17T10:24:50.224Z,5.65
2023-03-17T10:27:20.844Z,5.63
2023-03-17T10:29:49.887Z,5.30
2023-03-17T10:32:18.912Z,5.68
2023-03-17T10:34:48.953Z,5.10
2023-03-17T10:37:23.778Z,5.50
2023-03-17T10:39:59.934Z,5.88
2023-03-17T10:42:30.345Z,5.20
2023-03-17T10:45:00.852Z,4.45
2023-03-17T10:47:38.722Z,4.97
2023-03-17T10:50:28.188Z,5.70
2023-03-17T10:53:01.994Z,5.90
2023-03-17T10:55:34.418Z,5.85
2023-03-17T10:58:21.425Z,5.88
2023-03-17T11:01:00.428Z,5.75
2023-03-17T11:03:34.712Z,5.15
2023-03-17T11:06:04.863Z,5.32
2023-03-17T11:08:38.021Z,6.40
2023-03-17T11:11:11.064Z,5.93
2023-03-17T11:13:42.453Z,6.18
2023-03-17T11:16:18.686Z,5.97
2023-03-17T11:18:51.133Z,6.15
2023-03-17T11:21:29.309Z,6.10
2023-03-17T11:24:08.823Z,6.45
2023-03-17T11:26:54.234Z,6.22
2023-03-17T11:29:40.157Z,6.40
2023-03-17T11:32:19.134Z,6.72
2023-03-17T11:34:56.003Z,7.35
2023-03-17T11:37:43.731Z,6.45
2023-03-17T11:40:19.687Z,6.35
2023-03-17T11:42:56.057Z,6.97
2023-03-17T11:45:31.643Z,7.30
2023-03-17T11:48:18.942Z,7.20
2023-03-17T11:50:54.131Z,6.88
2023-03-17T11:53:35.837Z,6.55
2023-03-17T11:56:09.532Z,7.10
2023-03-17T11:58:42.176Z,6.88
2023-03-17T12:01:14.107Z,7.97
2023-03-17T12:03:47.913Z,8.13
2023-03-17T12:06:20.939Z,7.35
2023-03-17T12:08:53.034Z,7.90
2023-03-17T12:11:25.098Z,8.10
2023-03-17T12:13:58.890Z,7.72
2023-03-17T12:16:32.494Z,8.18
2023-03-17T12:19:05.709Z,8.50
2023-03-17T12:21:39.377Z,8.60
2023-03-17T12:24:13.126Z,8.63
2023-03-17T12:26:45.646Z,8.93
2023-03-17T12:29:19.462Z,8.05
2023-03-17T12:31:57.706Z,8.82
2023-03-17T12:34:30.838Z,8.38
2023-03-17T12:37:10.129Z,7.93
2023-03-17T12:39:40.880Z,7.68
2023-03-17T12:42:19.497Z,7.05
2023-03-17T12:45:03.994Z,7.55
2023-03-17T12:47:43.325Z,7.05
2023-03-17T12:50:23.622Z,7.38
2023-03-17T12:53:10.132Z,6.38
2023-03-17T12:55:39.594Z,6.72
2023-03-17T12:58:18.270Z,6.63
2023-03-17T13:00:58.129Z,6.55
2023-03-17T13:03:31.131Z,6.00
2023-03-17T13:06:03.683Z,5.75
2023-03-17T13:08:37.170Z,5.97
2023-03-17T13:11:20.543Z,5.95
2023-03-17T13:13:59.694Z,5.25
2023-03-17T13:16:36.092Z,5.50
2023-03-17T13:19:10.228Z,5.95
2023-03-17T13:24:55.859Z,5.43
2023-03-17T13:27:43.115Z,6.10
2023-03-17T13:30:30.900Z,5.95
2023-03-17T13:33:16.433Z,6.90
2023-03-17T13:35:51.382Z,6.38
2023-03-17T13:38:39.353Z,6.25
2023-03-17T13:41:16.575Z,6.88
2023-03-17T13:43:53.398Z,6.38
2023-03-17T13:46:29.348Z,7.65
2023-03-17T13:49:06.235Z,7.82
2023-03-17T13:51:43.895Z,7.80
2023-03-17T13:54:24.200Z,7.85
2023-03-17T13:56:56.569Z,7.00
2023-03-17T13:59:35.213Z,6.65
2023-03-17T14:02:14.394Z,7.25
2023-03-17T14:04:50.170Z,7.68
2023-03-17T14:07:34.158Z,6.88
2023-03-17T14:10:10.650Z,7.47
2023-03-17T14:12:49.690Z,7.22
2023-03-17T14:15:29.581Z,7.10
2023-03-17T14:18:02.344Z,6.80
2023-03-17T14:20:40.593Z,7.47
2023-03-17T14:23:12.221Z,6.35
2023-03-17T14:25:43.828Z,6.80
2023-03-17T14:28:21.792Z,7.07
2023-03-17T14:31:07.411Z,7.68
2023-03-17T14:33:44.494Z,6.90
2023-03-17T14:36:41.625Z,6.80
2023-03-17T14:39:25.275Z,6.68
2023-03-17T14:42:07.670Z,6.70
2023-03-17T14:44:50.104Z,6.90
2023-03-17T14:47:22.960Z,7.18
2023-03-17T14:50:11.024Z,7.50
2023-03-17T14:55:49.443Z,7.20
2023-03-17T14:58:25.675Z,7.45
2023-03-17T15:00:59.618Z,7.50
2023-03-17T15:03:33.738Z,7.50
2023-03-17T15:06:22.170Z,6.88
2023-03-17T15:11:58.828Z,6.97
2023-03-17T15:14:48.193Z,7.10
2023-03-17T15:17:34.763Z,6.93
2023-03-17T15:20:33.983Z,6.55
2023-03-17T15:23:10.860Z,6.00
2023-03-17T15:25:42.430Z,6.70
2023-03-17T15:28:25.318Z,6.72
2023-03-17T15:30:56.369Z,6.57
2023-03-17T15:36:32.846Z,6.40
2023-03-17T15:39:01.946Z,6.65
2023-03-17T15:41:30.614Z,6.75
2023-03-17T15:43:59.228Z,6.57
2023-03-17T15:46:31.112Z,6.35
2023-03-17T15:49:00.134Z,6.10
2023-03-17T15:51:30.051Z,6.53
2023-03-17T15:53:58.600Z,6.35
2023-03-17T15:56:27.351Z,6.55
2023-03-17T15:58:56.061Z,6.50
2023-03-17T16:01:27.637Z,6.50
2023-03-17T16:03:56.952Z,6.53
2023-03-17T16:06:25.619Z,6.38
2023-03-17T16:08:55.536Z,6.82
2023-03-17T16:11:28.457Z,6.40
2023-03-17T16:13:57.358Z,7.25
2023-03-17T16:16:30.785Z,5.95
2023-03-17T16:19:00.280Z,6.25
2023-03-17T16:21:28.757Z,6.70
2023-03-17T16:23:58.885Z,6.90
2023-03-17T16:26:28.249Z,6.97
2023-03-17T16:28:57.819Z,5.68
2023-03-17T16:31:29.333Z,6.38
2023-03-17T16:33:58.196Z,6.70
2023-03-17T16:36:27.096Z,6.15
2023-03-17T16:38:55.684Z,6.07
2023-03-17T16:41:27.453Z,6.22
2023-03-17T16:44:01.882Z,6.63
2023-03-17T16:46:34.901Z,6.03
2023-03-17T16:49:04.714Z,6.22
2023-03-17T16:51:33.152Z,6.35
2023-03-17T16:54:01.648Z,6.10
2023-03-17T16:56:31.654Z,6.07
2023-03-17T16:59:00.673Z,6.30
2023-03-17T17:01:30.508Z,6.72
2023-03-17T17:03:59.596Z,6.70
2023-03-17T17:06:28.046Z,6.32
2023-03-17T17:08:56.624Z,5.70
2023-03-17T17:11:25.165Z,5.82
2023-03-17T17:13:54.993Z,5.78
2023-03-17T17:16:26.766Z,5.75
2023-03-17T17:18:55.700Z,6.60
2023-03-17T17:21:24.579Z,6.30
2023-03-17T17:23:53.383Z,6.53
2023-03-17T17:26:22.106Z,7.00
2023-03-17T17:28:50.845Z,7.13
2023-03-17T17:31:20.814Z,7.23
2023-03-17T17:33:49.346Z,7.55
2023-03-17T17:36:18.660Z,7.70
2023-03-17T17:38:47.468Z,7.55
2023-03-17T17:41:17.040Z,8.40
2023-03-17T17:43:47.247Z,7.73
2023-03-17T17:46:18.185Z,8.00
2023-03-17T17:48:48.241Z,8.27
2023-03-17T17:51:16.844Z,7.87
2023-03-17T17:53:45.469Z,9.33
2023-03-17T17:56:15.388Z,8.03
2023-03-17T17:58:44.412Z,8.17
2023-03-17T18:01:14.277Z,8.37
2023-03-17T18:03:43.175Z,8.50
2023-03-17T18:06:14.476Z,8.17
2023-03-17T18:08:43.597Z,7.93
2023-03-17T18:11:12.305Z,7.50
2023-03-17T18:13:41.103Z,8.07
2023-03-17T18:16:10.837Z,9.30
2023-03-17T18:18:42.420Z,8.10
2023-03-17T18:21:11.790Z,7.80
2023-03-17T18:23:46.828Z,8.57
2023-03-17T18:26:16.287Z,8.70
2023-03-17T18:28:44.999Z,8.98
2023-03-17T18:31:17.464Z,8.43
2023-03-17T18:33:47.821Z,7.63
2023-03-17T18:36:16.334Z,8.40
2023-03-17T18:38:46.315Z,8.60
2023-03-17T18:41:14.901Z,8.80
2023-03-17T18:43:44.867Z,9.00
2023-03-17T18:46:13.919Z,8.70
2023-03-17T18:48:42.530Z,8.23
2023-03-17T18:51:11.189Z,9.00
2023-03-17T18:53:39.852Z,8.73
2023-03-17T18:56:10.561Z,8.90
2023-03-17T18:58:39.184Z,8.63
2023-03-17T19:01:07.821Z,9.60
2023-03-17T19:03:36.557Z,10.10
2023-03-17T19:06:13.181Z,9.33
2023-03-17T19:08:42.032Z,9.77
2023-03-17T19:11:14.884Z,9.70
2023-03-17T19:13:45.214Z,10.20
2023-03-17T19:16:13.991Z,10.63
2023-03-17T19:18:42.924Z,10.10
2023-03-17T19:21:11.939Z,10.33
2023-03-17T19:23:41.581Z,10.70
2023-03-17T19:26:10.501Z,10.77
2023-03-17T19:28:40.412Z,10.40
2023-03-17T19:31:09.376Z,11.37
2023-03-17T19:33:38.295Z,10.93
2023-03-17T19:36:08.505Z,11.70
2023-03-17T19:38:37.209Z,12.63
2023-03-17T19:41:06.175Z,12.13
2023-03-17T19:43:40.757Z,12.10
2023-03-17T19:46:12.129Z,11.80
2023-03-17T19:48:42.042Z,12.20
2023-03-17T19:51:10.690Z,11.83
2023-03-17T19:53:39.323Z,12.53
2023-03-17T19:56:08.198Z,12.13
2023-03-17T19:58:36.973Z,12.53
2023-03-17T20:01:06.976Z,12.50
2023-03-17T20:03:39.412Z,11.77
2023-03-17T20:06:08.341Z,13.33
2023-03-17T20:08:37.284Z,12.37
2023-03-17T20:11:06.759Z,12.50
2023-03-17T20:13:36.170Z,12.03
2023-03-17T20:16:04.912Z,10.97
2023-03-17T20:18:33.639Z,11.77
2023-03-17T20:21:05.846Z,11.30
2023-03-17T20:23:35.513Z,10.97
2023-03-17T20:26:04.072Z,10.10
2023-03-17T20:28:32.640Z,11.03
2023-03-17T20:31:03.006Z,10.30
2023-03-17T20:33:31.991Z,9.90
2023-03-17T20:36:01.902Z,10.77
2023-03-17T20:38:33.320Z,10.40
2023-03-17T20:41:09.378Z,9.67
2023-03-17T20:43:38.360Z,10.17
2023-03-17T20:46:08.697Z,9.73
2023-03-17T20:48:37.977Z,9.93
2023-03-17T20:51:06.970Z,10.40
2023-03-17T20:53:36.874Z,10.03
2023-03-17T20:56:05.512Z,9.43
2023-03-17T20:58:34.436Z,9.80
2023-03-17T21:01:02.945Z,10.33
2023-03-17T21:03:32.461Z,9.23
2023-03-17T21:06:01.413Z,10.13
2023-03-17T21:08:29.978Z,8.87
2023-03-17T21:10:59.881Z,9.60
2023-03-17T21:13:28.612Z,9.60
2023-03-17T21:15:57.156Z,9.23
2023-03-17T21:18:26.063Z,8.93
2023-03-17T21:20:54.507Z,9.17
2023-03-17T21:23:23.688Z,9.17
2023-03-17T21:25:56.688Z,9.27
2023-03-17T21:28:26.460Z,9.33
2023-03-17T21:30:54.951Z,8.97
2023-03-17T21:33:23.492Z,9.90
2023-03-17T21:35:52.266Z,8.73
2023-03-17T21:38:21.415Z,8.70
2023-03-17T21:40:49.934Z,9.00
2023-03-17T21:43:18.696Z,8.83
2023-03-17T21:45:48.600Z,8.50
2023-03-17T21:48:17.418Z,8.47
2023-03-17T21:50:46.146Z,8.57
2023-03-17T21:53:15.886Z,9.07
2023-03-17T21:55:44.465Z,8.63
2023-03-17T21:58:13.077Z,8.40
2023-03-17T22:00:45.667Z,8.60
2023-03-17T22:03:15.894Z,7.93
2023-03-17T22:05:44.350Z,8.40
2023-03-17T22:08:13.117Z,8.93
2023-03-17T22:10:41.671Z,8.03
2023-03-17T22:13:10.252Z,8.70
2023-03-17T22:15:38.826Z,8.00
2023-03-17T22:18:07.536Z,7.90
2023-03-17T22:20:37.662Z,8.07
2023-03-17T22:23:06.263Z,8.03
2023-03-17T22:25:35.262Z,7.80
2023-03-17T22:28:03.946Z,8.03
2023-03-17T22:30:32.532Z,7.97
2023-03-17T22:33:01.234Z,7.63
2023-03-17T22:35:29.784Z,8.00
2023-03-17T22:37:59.643Z,7.37
2023-03-17T22:40:28.231Z,7.40
2023-03-17T22:42:57.280Z,7.50
2023-03-17T22:45:25.996Z,7.13
2023-03-17T22:47:55.552Z,7.53
2023-03-17T22:50:24.476Z,7.20
2023-03-17T22:52:53.211Z,7.03
2023-03-17T22:55:23.330Z,6.97
2023-03-17T22:57:51.899Z,7.23
2023-03-17T23:00:20.561Z,7.20
2023-03-17T23:02:49.257Z,7.07
2023-03-17T23:05:17.786Z,7.13
2023-03-17T23:07:53.283Z,6.73
2023-03-17T23:10:24.739Z,7.00
2023-03-17T23:12:53.500Z,7.20
2023-03-17T23:15:22.473Z,6.57
2023-03-17T23:17:52.055Z,6.73
2023-03-17T23:20:20.668Z,7.13
2023-03-17T23:22:49.188Z,6.50
2023-03-17T23:25:18.211Z,6.40
2023-03-17T23:27:48.024Z,7.37
2023-03-17T23:30:17.899Z,6.17
2023-03-17T23:32:46.914Z,7.17
2023-03-17T23:35:15.473Z,6.70
2023-03-17T23:37:43.998Z,7.10
2023-03-17T23:40:15.546Z,7.07
2023-03-17T23:42:44.073Z,7.13
2023-03-17T23:45:15.313Z,6.17
2023-03-17T23:47:44.600Z,6.87
2023-03-17T23:50:14.413Z,6.67
2023-03-17T23:52:43.245Z,6.63
2023-03-17T23:55:12.974Z,6.10
2023-03-17T23:57:41.556Z,6.70
